Time;durP1;ratioP1;P1;durP2;ratioP2;P2;SDS_P1;SDS_P2;PMS_P1;PMS_P2;Temp;Humidity;BMP_temperature;BMP_pressure;BME280_temperature;BME280_humidity;BME280_pressure;Samples;Min_cycle;Max_cycle;Signal;HPM_P1;HPM_P2
2022/11/05 00:09:57;;;;;;;11.70;4.65;;;9.70;99.90;;;;;;5047371;28;20083;-81
2022/11/05 00:17:52;;;;;;;12.27;4.80;;;9.50;99.90;;;;;;5048983;28;20497;-83
2022/11/05 00:20:17;;;;;;;12.57;4.93;;;9.50;99.90;;;;;;5043945;28;20025;-84
2022/11/05 00:25:29;;;;;;;13.80;3.85;;;9.50;99.90;;;;;;5039937;28;20075;-84
2022/11/05 00:28:00;;;;;;;14.68;3.92;;;9.50;99.90;;;;;;5049067;28;21487;-85
2022/11/05 00:30:26;;;;;;;11.88;4.15;;;9.50;99.90;;;;;;5045758;28;20037;-86
2022/11/05 00:33:01;;;;;;;7.60;3.55;;;9.50;99.90;;;;;;5041834;28;20052;-81
2022/11/05 00:35:27;;;;;;;13.25;3.80;;;9.50;99.90;;;;;;5044452;28;20043;-83
2022/11/05 00:37:53;;;;;;;12.73;3.63;;;9.50;99.90;;;;;;5054644;28;20369;-85
2022/11/05 00:40:18;;;;;;;9.15;3.22;;;9.50;99.90;;;;;;5049584;28;20025;-84
2022/11/05 00:45:29;;;;;;;9.60;3.10;;;9.50;99.90;;;;;;5047649;28;20040;-84
2022/11/05 00:50:39;;;;;;;13.85;3.25;;;9.40;99.90;;;;;;5043836;28;20060;-84
2022/11/05 00:53:06;;;;;;;12.95;3.53;;;9.40;99.90;;;;;;5063160;28;20021;-85
2022/11/05 00:55:43;;;;;;;9.60;2.92;;;9.40;99.90;;;;;;5050476;28;20051;-82
2022/11/05 00:58:14;;;;;;;13.40;4.30;;;9.40;99.90;;;;;;5032432;28;20049;-85
2022/11/05 01:00:42;;;;;;;8.90;3.42;;;9.40;99.90;;;;;;5046997;28;20465;-85
2022/11/05 01:03:11;;;;;;;5.70;2.70;;;9.40;99.90;;;;;;5042378;28;20032;-85
2022/11/05 01:05:39;;;;;;;4.95;2.30;;;9.50;99.90;;;;;;5050708;28;20032;-84
2022/11/05 01:08:05;;;;;;;11.38;3.72;;;9.40;99.90;;;;;;5038298;28;20052;-84
2022/11/05 01:10:32;;;;;;;5.95;2.03;;;9.40;99.90;;;;;;5043846;28;20068;-84
2022/11/05 01:12:58;;;;;;;4.22;2.20;;;9.40;99.90;;;;;;5032210;28;20029;-85
2022/11/05 01:15:23;;;;;;;7.20;2.38;;;9.40;99.90;;;;;;5036997;28;20029;-84
2022/11/05 01:17:50;;;;;;;6.07;2.22;;;9.40;99.90;;;;;;5038832;28;20021;-85
2022/11/05 01:20:16;;;;;;;10.48;2.17;;;9.40;99.90;;;;;;5041952;28;20074;-84
2022/11/05 01:22:42;;;;;;;3.75;2.00;;;9.40;99.90;;;;;;5047737;28;20021;-85
2022/11/05 01:25:08;;;;;;;4.90;2.38;;;9.40;99.90;;;;;;5040159;28;20119;-83
2022/11/05 01:27:36;;;;;;;8.85;2.63;;;9.40;99.90;;;;;;5055709;28;20040;-84
2022/11/05 01:30:02;;;;;;;8.40;2.45;;;9.40;99.90;;;;;;5049508;28;20495;-84
2022/11/05 01:32:28;;;;;;;8.52;2.17;;;9.40;99.90;;;;;;5037387;28;20116;-84
2022/11/05 01:34:53;;;;;;;11.80;2.92;;;9.30;99.90;;;;;;5049071;28;20425;-85
2022/11/05 01:37:22;;;;;;;4.97;2.20;;;9.30;99.90;;;;;;5025657;28;20029;-85
2022/11/05 01:39:47;;;;;;;13.45;3.10;;;9.40;99.90;;;;;;5040863;28;20541;-84
2022/11/05 01:42:20;;;;;;;8.40;2.63;;;9.40;99.90;;;;;;5053365;28;20123;-86
2022/11/05 01:44:58;;;;;;;18.00;3.45;;;9.40;99.90;;;;;;5037842;28;20171;-85
2022/11/05 01:47:29;;;;;;;9.25;3.40;;;9.40;99.90;;;;;;5046383;28;20056;-85
2022/11/05 01:49:59;;;;;;;10.35;3.60;;;9.40;99.90;;;;;;5033514;28;20124;-84
2022/11/05 01:52:27;;;;;;;11.20;3.75;;;9.40;99.90;;;;;;5043063;28;20032;-86
2022/11/05 01:54:53;;;;;;;18.77;4.43;;;9.40;99.90;;;;;;5032205;28;20040;-86
2022/11/05 01:57:19;;;;;;;16.48;3.58;;;9.50;99.90;;;;;;5041200;28;20059;-84
2022/11/05 01:59:50;;;;;;;19.40;5.15;;;9.50;99.90;;;;;;5043774;28;20208;-84
2022/11/05 02:02:18;;;;;;;22.63;4.53;;;9.60;99.90;;;;;;5048054;28;20037;-81
2022/11/05 02:04:52;;;;;;;17.83;4.80;;;9.60;99.90;;;;;;5037542;28;20195;-86
2022/11/05 02:07:19;;;;;;;14.55;4.57;;;9.60;99.90;;;;;;5048500;28;20036;-85
2022/11/05 02:10:02;;;;;;;17.52;4.03;;;9.70;99.90;;;;;;5041266;28;20049;-85
2022/11/05 02:12:56;;;;;;;16.65;4.55;;;9.70;99.90;;;;;;5051516;28;20842;-86
2022/11/05 02:15:37;;;;;;;13.00;3.13;;;9.80;99.90;;;;;;5037185;28;20533;-85
2022/11/05 02:18:35;;;;;;;30.20;3.60;;;9.70;99.90;;;;;;5045879;28;20079;-85
2022/11/05 02:21:28;;;;;;;13.85;3.38;;;9.70;99.90;;;;;;4985128;28;20045;-86
2022/11/05 02:24:00;;;;;;;19.48;3.85;;;9.60;99.90;;;;;;5038497;28;20075;-86
2022/11/05 02:26:51;;;;;;;15.88;4.43;;;9.60;99.90;;;;;;5061745;28;20112;-85
2022/11/05 02:29:42;;;;;;;19.80;3.78;;;9.60;99.90;;;;;;5041401;28;20044;-85
2022/11/05 02:32:20;;;;;;;23.45;3.78;;;9.60;99.90;;;;;;5003400;28;20065;-84
2022/11/05 02:35:01;;;;;;;15.10;3.15;;;9.60;99.90;;;;;;5047023;28;20161;-85
2022/11/05 02:37:40;;;;;;;19.17;3.47;;;9.50;99.90;;;;;;5046891;28;20086;-86
2022/11/05 02:40:36;;;;;;;18.75;3.80;;;9.40;99.90;;;;;;5037657;28;20075;-85
2022/11/05 02:43:24;;;;;;;12.75;3.33;;;9.40;99.90;;;;;;5034261;28;20037;-85
2022/11/05 02:46:25;;;;;;;18.67;3.50;;;9.40;99.90;;;;;;5039666;28;20051;-86
2022/11/05 02:49:05;;;;;;;26.85;4.38;;;9.40;99.90;;;;;;5040824;28;20056;-85
2022/11/05 02:51:44;;;;;;;14.40;4.22;;;9.40;99.90;;;;;;5040288;28;20040;-86
2022/11/05 02:54:39;;;;;;;15.48;3.55;;;9.30;99.90;;;;;;5041291;28;20067;-84
2022/11/05 02:57:05;;;;;;;22.35;3.45;;;9.30;99.90;;;;;;5041439;28;20045;-83
2022/11/05 02:59:30;;;;;;;15.63;3.08;;;9.30;99.90;;;;;;5039769;28;20075;-84
2022/11/05 03:01:57;;;;;;;10.68;2.50;;;9.30;99.90;;;;;;5040744;28;20087;-83
2022/11/05 03:04:27;;;;;;;17.05;3.08;;;9.20;99.90;;;;;;5042113;28;20036;-82
2022/11/05 03:07:01;;;;;;;17.38;3.22;;;9.20;99.90;;;;;;5036671;28;20029;-85
2022/11/05 03:09:51;;;;;;;22.08;4.38;;;9.20;99.90;;;;;;5038585;28;20568;-86
2022/11/05 03:12:55;;;;;;;14.25;2.80;;;9.10;99.90;;;;;;5044544;28;20033;-85
2022/11/05 03:15:33;;;;;;;7.72;2.05;;;9.10;99.90;;;;;;5026312;28;20107;-81
2022/11/05 03:18:24;;;;;;;8.18;2.28;;;9.00;99.90;;;;;;5048259;28;20034;-85
2022/11/05 03:21:09;;;;;;;9.55;2.53;;;8.90;99.90;;;;;;5040996;28;20041;-84
2022/11/05 03:23:49;;;;;;;18.85;3.88;;;8.80;99.90;;;;;;5054023;28;20041;-83
2022/11/05 03:26:24;;;;;;;19.67;3.20;;;8.70;99.90;;;;;;5044501;28;20025;-84
2022/11/05 03:28:55;;;;;;;11.63;3.33;;;8.70;99.90;;;;;;5042027;28;20457;-84
2022/11/05 03:31:27;;;;;;;12.35;2.70;;;8.60;99.90;;;;;;5049465;28;20032;-85
2022/11/05 03:33:54;;;;;;;9.73;2.00;;;8.60;99.90;;;;;;5048396;28;20044;-85
2022/11/05 03:36:36;;;;;;;18.88;2.90;;;8.40;99.90;;;;;;5052758;28;20036;-85
2022/11/05 03:39:08;;;;;;;17.05;3.25;;;8.40;99.90;;;;;;5045349;28;20055;-86
2022/11/05 03:41:36;;;;;;;12.27;2.55;;;8.40;99.90;;;;;;5045894;28;20036;-85
2022/11/05 03:44:06;;;;;;;18.13;3.17;;;8.30;99.90;;;;;;5051680;28;20053;-85
2022/11/05 03:46:38;;;;;;;14.73;2.15;;;8.30;99.90;;;;;;5052503;28;20036;-83
2022/11/05 03:49:09;;;;;;;22.83;3.22;;;8.30;99.90;;;;;;5043787;28;20033;-84
2022/11/05 03:51:45;;;;;;;12.68;2.17;;;8.30;99.90;;;;;;5041381;28;20033;-86
2022/11/05 03:54:11;;;;;;;22.20;4.05;;;8.30;99.90;;;;;;5046087;28;20497;-86
2022/11/05 03:57:02;;;;;;;9.40;2.08;;;8.30;99.90;;;;;;5048581;28;20057;-82
2022/11/05 03:59:30;;;;;;;22.60;3.55;;;8.30;99.90;;;;;;5053711;28;20029;-84
2022/11/05 04:02:01;;;;;;;7.57;2.25;;;8.30;99.90;;;;;;5041326;28;20033;-82
2022/11/05 04:04:26;;;;;;;17.23;2.28;;;8.20;99.90;;;;;;5049815;28;20037;-85
2022/11/05 04:15:10;;;;;;;12.18;2.42;;;7.90;99.90;;;;;;5049444;28;20405;-85
2022/11/05 04:17:36;;;;;;;13.02;2.42;;;7.80;99.90;;;;;;5044739;28;20031;-85
2022/11/05 04:25:30;;;;;;;12.55;2.42;;;7.60;99.90;;;;;;5058870;28;20039;-84
2022/11/05 04:27:59;;;;;;;9.68;2.05;;;7.60;99.90;;;;;;5041890;28;20033;-85
2022/11/05 04:30:25;;;;;;;6.50;1.75;;;7.50;99.90;;;;;;5046464;28;20049;-85
2022/11/05 04:32:59;;;;;;;20.08;2.80;;;7.40;99.90;;;;;;5044512;28;20166;-82
2022/11/05 04:35:46;;;;;;;12.00;2.33;;;7.40;99.90;;;;;;5046685;28;20033;-85
2022/11/05 04:38:16;;;;;;;22.55;3.25;;;7.40;99.90;;;;;;5042732;28;20111;-87
2022/11/05 04:40:43;;;;;;;17.40;3.10;;;7.50;99.90;;;;;;5047802;28;20025;-86
2022/11/05 04:43:18;;;;;;;35.88;5.05;;;7.50;99.90;;;;;;5062091;28;20370;-86
2022/11/05 04:45:44;;;;;;;23.20;3.28;;;7.60;99.90;;;;;;5041765;28;20048;-85
2022/11/05 04:48:13;;;;;;;19.98;2.90;;;7.60;99.90;;;;;;5033417;28;20038;-85
2022/11/05 04:50:42;;;;;;;16.35;3.05;;;7.60;99.90;;;;;;5042979;28;20122;-85
2022/11/05 04:53:08;;;;;;;19.35;3.50;;;7.60;99.90;;;;;;5053196;28;20048;-83
2022/11/05 04:55:33;;;;;;;16.80;2.83;;;7.70;99.90;;;;;;5053177;28;20093;-84
2022/11/05 04:57:59;;;;;;;13.02;3.30;;;7.70;99.90;;;;;;5056509;28;20587;-86
2022/11/05 05:00:25;;;;;;;14.95;2.92;;;7.70;99.90;;;;;;5057104;28;20029;-85
2022/11/05 05:02:50;;;;;;;24.77;3.03;;;7.60;99.90;;;;;;5051135;28;20098;-85
2022/11/05 05:05:16;;;;;;;19.50;2.47;;;7.60;99.90;;;;;;5049433;28;20032;-85
2022/11/05 05:07:45;;;;;;;13.40;2.05;;;7.50;99.90;;;;;;5048196;28;20024;-82
2022/11/05 05:10:11;;;;;;;23.50;3.38;;;7.50;99.90;;;;;;5037547;28;20057;-85
2022/11/05 05:12:39;;;;;;;17.30;2.63;;;7.50;99.90;;;;;;5055938;28;20020;-85
2022/11/05 05:15:05;;;;;;;17.40;3.28;;;7.60;99.90;;;;;;5049097;28;20048;-83
2022/11/05 05:17:34;;;;;;;20.65;2.60;;;7.70;99.90;;;;;;5039900;28;20036;-84
2022/11/05 05:22:56;;;;;;;11.07;2.88;;;7.70;99.90;;;;;;5058493;28;20089;-85
2022/11/05 05:25:22;;;;;;;17.05;2.28;;;7.70;99.90;;;;;;5052573;28;20051;-85
2022/11/05 05:27:50;;;;;;;19.08;2.70;;;7.60;99.90;;;;;;5045006;28;20120;-84
2022/11/05 05:30:16;;;;;;;10.82;2.35;;;7.60;99.90;;;;;;5045459;28;20401;-85
2022/11/05 05:32:42;;;;;;;15.65;2.47;;;7.50;99.90;;;;;;5047608;28;20054;-85
2022/11/05 05:35:08;;;;;;;22.30;2.97;;;7.50;99.90;;;;;;5045317;28;20025;-84
2022/11/05 05:37:34;;;;;;;9.60;2.03;;;7.50;99.90;;;;;;5042445;28;20036;-85
2022/11/05 05:39:59;;;;;;;10.45;2.38;;;7.40;99.90;;;;;;5044273;28;20409;-85
2022/11/05 05:42:28;;;;;;;22.83;4.07;;;7.30;99.90;;;;;;5045111;28;20033;-85
2022/11/05 05:44:53;;;;;;;12.85;2.50;;;7.20;99.90;;;;;;5052001;28;20037;-84
2022/11/05 05:47:19;;;;;;;18.55;2.53;;;7.20;99.90;;;;;;5053641;28;20031;-85
2022/11/05 05:49:47;;;;;;;10.15;2.40;;;7.20;99.90;;;;;;5052517;28;20045;-83
2022/11/05 05:52:13;;;;;;;14.48;2.13;;;7.20;99.90;;;;;;5048246;28;20060;-85
2022/11/05 05:54:41;;;;;;;13.80;2.20;;;7.10;99.90;;;;;;5039112;28;20024;-85
2022/11/05 05:57:10;;;;;;;16.90;2.63;;;7.10;99.90;;;;;;5040724;28;20049;-82
2022/11/05 05:59:35;;;;;;;8.13;2.17;;;7.00;99.90;;;;;;5027972;28;20033;-85
2022/11/05 06:02:01;;;;;;;18.23;3.47;;;7.00;99.90;;;;;;5033289;28;20039;-85
2022/11/05 06:04:27;;;;;;;17.15;2.13;;;7.00;99.90;;;;;;5037717;28;20033;-85
2022/11/05 06:06:53;;;;;;;22.80;3.00;;;7.00;99.90;;;;;;5047282;28;20079;-84
2022/11/05 06:09:18;;;;;;;12.95;1.88;;;6.90;99.90;;;;;;5045909;28;20036;-84
2022/11/05 06:11:46;;;;;;;18.67;2.83;;;7.00;99.90;;;;;;5043550;28;20033;-86
2022/11/05 06:14:12;;;;;;;10.27;2.15;;;6.90;99.90;;;;;;5041160;28;20021;-85
2022/11/05 06:16:39;;;;;;;13.10;2.50;;;6.90;99.90;;;;;;5044197;28;20063;-85
2022/11/05 06:19:07;;;;;;;8.73;1.92;;;6.90;99.90;;;;;;5043801;28;20029;-84
2022/11/05 06:21:37;;;;;;;14.07;3.15;;;6.80;99.90;;;;;;5048266;28;20055;-80
2022/11/05 06:24:05;;;;;;;14.27;2.63;;;6.80;99.90;;;;;;5044100;28;20060;-84
2022/11/05 06:26:31;;;;;;;10.32;1.90;;;6.80;99.90;;;;;;5036726;28;20116;-85
2022/11/05 06:28:57;;;;;;;16.42;2.95;;;6.70;99.90;;;;;;5049191;28;20548;-86
2022/11/05 06:31:23;;;;;;;11.25;2.30;;;6.70;99.90;;;;;;5031491;28;20120;-85
2022/11/05 06:33:49;;;;;;;18.95;2.45;;;6.70;99.90;;;;;;5021577;28;20099;-83
2022/11/05 06:36:17;;;;;;;9.25;2.10;;;6.70;99.90;;;;;;5033303;28;20466;-85
2022/11/05 06:38:43;;;;;;;10.63;2.30;;;6.70;99.90;;;;;;5053489;28;20048;-85
2022/11/05 06:41:08;;;;;;;26.42;4.35;;;6.70;99.90;;;;;;5028955;28;20106;-85
2022/11/05 06:43:34;;;;;;;18.80;2.83;;;6.70;99.90;;;;;;5037393;28;20496;-85
2022/11/05 06:46:03;;;;;;;20.33;4.15;;;6.90;99.90;;;;;;5033102;28;20022;-85
2022/11/05 06:48:29;;;;;;;10.30;2.08;;;6.90;99.90;;;;;;5026889;28;20082;-84
2022/11/05 06:50:55;;;;;;;21.58;2.75;;;6.90;99.90;;;;;;5042939;28;20029;-85
2022/11/05 06:53:20;;;;;;;19.20;2.65;;;6.90;99.90;;;;;;5042587;28;20020;-83
2022/11/05 06:55:49;;;;;;;19.60;2.35;;;7.00;99.90;;;;;;5050222;28;20473;-85
2022/11/05 06:58:15;;;;;;;20.20;3.05;;;7.00;99.90;;;;;;5047872;28;20041;-86
2022/11/05 07:00:41;;;;;;;28.33;2.58;;;7.00;99.90;;;;;;5041162;28;20108;-85
2022/11/05 07:03:08;;;;;;;12.43;2.10;;;7.20;99.90;;;;;;5056599;28;20032;-85
2022/11/05 07:05:40;;;;;;;8.48;2.30;;;7.20;99.90;;;;;;5052156;28;20037;-85
2022/11/05 07:08:05;;;;;;;18.08;3.05;;;7.20;99.90;;;;;;5050403;28;20024;-85
2022/11/05 07:10:31;;;;;;;24.58;4.38;;;7.20;99.90;;;;;;5051231;28;20146;-85
2022/11/05 07:12:57;;;;;;;39.88;9.70;;;7.30;99.90;;;;;;5045768;28;20285;-87
2022/11/05 07:15:22;;;;;;;38.83;7.82;;;7.50;99.90;;;;;;5045791;28;20059;-84
2022/11/05 07:17:48;;;;;;;25.25;6.68;;;7.60;99.90;;;;;;5056478;28;20021;-85
2022/11/05 07:20:13;;;;;;;33.88;8.20;;;7.60;99.90;;;;;;5047667;28;20016;-84
2022/11/05 07:22:39;;;;;;;28.35;4.40;;;7.70;99.90;;;;;;5044684;28;20067;-85
2022/11/05 07:25:05;;;;;;;27.40;4.32;;;7.80;99.90;;;;;;5053086;28;20029;-84
2022/11/05 07:27:36;;;;;;;19.63;3.08;;;7.90;99.90;;;;;;5048733;28;20098;-85
2022/11/05 07:30:04;;;;;;;22.92;3.58;;;8.00;99.90;;;;;;5044009;28;20072;-82
2022/11/05 07:32:35;;;;;;;24.55;2.97;;;8.00;99.90;;;;;;5038448;28;20541;-85
2022/11/05 07:35:00;;;;;;;21.13;4.20;;;8.20;99.90;;;;;;5054688;28;20041;-86
2022/11/05 07:37:26;;;;;;;24.25;3.55;;;8.30;99.90;;;;;;5045608;28;20021;-86
2022/11/05 07:39:52;;;;;;;21.05;3.78;;;8.40;99.90;;;;;;5049876;28;20469;-85
2022/11/05 07:42:18;;;;;;;23.63;4.43;;;8.50;99.90;;;;;;5048525;28;20037;-86
2022/11/05 07:44:44;;;;;;;17.45;2.90;;;8.60;99.90;;;;;;5052127;28;20029;-85
2022/11/05 07:47:10;;;;;;;34.00;5.45;;;8.60;99.90;;;;;;5053086;28;20021;-85
2022/11/05 07:49:35;;;;;;;28.27;3.47;;;8.70;99.90;;;;;;5046864;28;20041;-86
2022/11/05 07:52:01;;;;;;;21.98;3.88;;;8.70;99.90;;;;;;5046179;28;20026;-86
2022/11/05 07:54:26;;;;;;;23.67;4.47;;;8.80;99.90;;;;;;5042152;28;20041;-86
2022/11/05 07:56:52;;;;;;;25.27;4.25;;;8.80;99.90;;;;;;5057875;28;20044;-86
2022/11/05 07:59:18;;;;;;;25.17;3.42;;;8.80;99.90;;;;;;5055702;28;20024;-83
2022/11/05 08:01:43;;;;;;;19.98;3.20;;;8.90;99.90;;;;;;5050312;28;20021;-86
2022/11/05 08:04:09;;;;;;;16.33;2.40;;;9.00;99.90;;;;;;5050743;28;20406;-85
2022/11/05 08:06:34;;;;;;;23.00;2.80;;;9.10;99.90;;;;;;5046047;28;20037;-83
2022/11/05 08:09:00;;;;;;;20.63;3.47;;;9.10;99.90;;;;;;5048425;28;20038;-85
2022/11/05 08:11:26;;;;;;;16.08;2.75;;;9.20;99.90;;;;;;5044981;28;20033;-86
2022/11/05 08:13:51;;;;;;;19.45;2.47;;;9.20;99.90;;;;;;5042068;28;20056;-85
2022/11/05 08:16:17;;;;;;;31.02;3.05;;;9.30;99.90;;;;;;5049551;28;20516;-86
2022/11/05 08:18:43;;;;;;;23.95;2.75;;;9.30;99.90;;;;;;5047547;28;20500;-86
2022/11/05 08:21:09;;;;;;;21.20;2.67;;;9.30;99.90;;;;;;5050261;28;20483;-86
2022/11/05 08:23:35;;;;;;;23.77;2.85;;;9.40;99.90;;;;;;5055828;28;20029;-85
2022/11/05 08:26:02;;;;;;;17.98;2.63;;;9.40;99.90;;;;;;5047654;28;20639;-86
2022/11/05 08:28:28;;;;;;;21.50;2.85;;;9.40;99.90;;;;;;5040983;28;20116;-86
2022/11/05 08:30:55;;;;;;;25.85;3.03;;;9.40;99.90;;;;;;5047226;28;20475;-86
2022/11/05 08:33:23;;;;;;;18.67;2.75;;;9.40;99.90;;;;;;5041694;28;20458;-84
2022/11/05 08:35:49;;;;;;;14.70;2.40;;;9.40;99.90;;;;;;5046498;28;20086;-85
2022/11/05 08:38:18;;;;;;;29.17;2.58;;;9.40;99.90;;;;;;5024288;28;20032;-82
2022/11/05 08:40:52;;;;;;;23.50;2.85;;;9.40;99.90;;;;;;5040006;28;20040;-85
2022/11/05 08:43:18;;;;;;;22.05;3.13;;;9.40;99.90;;;;;;5052710;28;20073;-84
2022/11/05 08:45:44;;;;;;;16.00;2.25;;;9.40;99.90;;;;;;5042601;28;20429;-85
2022/11/05 08:48:13;;;;;;;12.20;2.20;;;9.40;99.90;;;;;;5049199;28;20027;-84
2022/11/05 08:50:40;;;;;;;18.85;3.42;;;9.50;99.90;;;;;;5028811;28;20131;-86
2022/11/05 08:53:06;;;;;;;15.32;2.40;;;9.60;99.90;;;;;;5057963;28;20021;-85
2022/11/05 08:55:34;;;;;;;19.02;2.85;;;9.60;99.90;;;;;;5041904;28;20039;-85
2022/11/05 08:58:03;;;;;;;16.25;3.35;;;9.60;99.90;;;;;;5046009;28;20513;-84
2022/11/05 09:00:31;;;;;;;17.60;2.67;;;9.70;99.90;;;;;;5031062;28;20030;-84
2022/11/05 09:03:00;;;;;;;14.55;2.42;;;9.70;99.90;;;;;;5035902;28;20108;-85
2022/11/05 09:05:27;;;;;;;18.45;3.08;;;9.70;99.90;;;;;;5040856;28;20120;-88
2022/11/05 09:07:53;;;;;;;17.92;2.90;;;9.70;99.90;;;;;;5047329;28;20056;-85
2022/11/05 09:10:19;;;;;;;14.48;2.65;;;9.80;99.90;;;;;;5044688;28;20563;-86
2022/11/05 09:12:44;;;;;;;12.35;2.28;;;9.80;99.90;;;;;;5046802;28;20539;-85
2022/11/05 09:15:10;;;;;;;16.60;2.50;;;9.90;99.90;;;;;;5050307;28;20021;-84
2022/11/05 09:17:36;;;;;;;24.52;4.78;;;10.00;99.90;;;;;;5048622;28;20028;-84
2022/11/05 09:20:03;;;;;;;17.63;4.22;;;10.00;99.90;;;;;;5040439;28;20024;-84
2022/11/05 09:22:29;;;;;;;13.13;2.47;;;10.10;99.90;;;;;;5031337;28;20028;-83
2022/11/05 09:24:54;;;;;;;14.45;2.78;;;10.10;99.90;;;;;;5050426;28;20068;-85
2022/11/05 09:27:20;;;;;;;10.70;2.10;;;10.10;99.90;;;;;;5049150;28;20447;-86
2022/11/05 09:29:46;;;;;;;11.05;1.88;;;10.10;99.90;;;;;;5047486;28;20524;-86
2022/11/05 09:32:11;;;;;;;9.60;2.13;;;10.20;99.90;;;;;;5041872;28;20102;-84
2022/11/05 09:34:43;;;;;;;18.83;2.20;;;10.20;99.90;;;;;;5055833;28;20056;-82
2022/11/05 09:37:08;;;;;;;6.57;1.30;;;10.30;99.90;;;;;;5061529;28;20086;-85
2022/11/05 09:39:34;;;;;;;20.10;2.50;;;10.30;99.90;;;;;;5045514;28;20032;-87
2022/11/05 09:42:05;;;;;;;8.70;1.83;;;10.30;99.90;;;;;;5041857;28;20466;-85
2022/11/05 09:44:48;;;;;;;11.90;2.22;;;10.40;99.90;;;;;;5045912;28;20059;-86
2022/11/05 09:47:23;;;;;;;13.98;2.22;;;10.40;99.90;;;;;;5041139;28;20074;-85
2022/11/05 09:49:52;;;;;;;9.07;1.90;;;10.40;99.90;;;;;;5041834;28;20037;-82
2022/11/05 09:52:29;;;;;;;11.52;1.85;;;10.40;99.90;;;;;;5037701;28;20024;-89
2022/11/05 09:54:55;;;;;;;7.13;2.05;;;10.40;99.90;;;;;;5041081;28;20030;-86
2022/11/05 09:57:27;;;;;;;16.85;2.40;;;10.50;99.90;;;;;;5041530;28;20528;-84
2022/11/05 10:00:00;;;;;;;7.97;2.42;;;10.60;99.90;;;;;;5050852;28;20597;-84
2022/11/05 10:02:32;;;;;;;12.15;2.35;;;10.60;99.90;;;;;;5049906;28;20025;-85
2022/11/05 10:05:08;;;;;;;6.78;1.85;;;10.60;99.90;;;;;;5043449;28;20035;-82
2022/11/05 10:07:54;;;;;;;10.50;2.20;;;10.60;99.90;;;;;;5044423;28;20041;-88
2022/11/05 10:10:46;;;;;;;11.07;1.65;;;10.60;99.90;;;;;;5040828;28;20056;-84
2022/11/05 10:13:43;;;;;;;9.27;2.13;;;10.70;99.90;;;;;;5044738;28;20217;-86
2022/11/05 10:16:27;;;;;;;;;;;10.70;99.90;;;;;;5045917;28;20347;-85
2022/11/05 10:19:26;;;;;;;14.40;2.10;;;10.80;99.90;;;;;;5036965;28;20403;-85
2022/11/05 10:22:15;;;;;;;10.38;2.13;;;10.70;99.90;;;;;;5045975;28;20119;-87
2022/11/05 10:24:43;;;;;;;13.25;3.78;;;10.80;99.90;;;;;;5052307;28;20534;-86
2022/11/05 10:27:18;;;;;;;21.80;3.75;;;10.90;99.90;;;;;;5035228;28;20054;-85
2022/11/05 10:29:44;;;;;;;16.08;3.67;;;10.90;99.90;;;;;;5042240;28;20574;-84
2022/11/05 10:32:20;;;;;;;14.98;2.75;;;10.90;99.90;;;;;;5044083;28;20025;-84
2022/11/05 10:34:46;;;;;;;5.78;1.92;;;10.80;99.90;;;;;;5047300;28;20024;-84
2022/11/05 10:37:11;;;;;;;9.45;2.97;;;10.80;99.90;;;;;;5044155;28;20234;-83
2022/11/05 10:39:37;;;;;;;10.55;2.67;;;10.80;99.90;;;;;;5038399;28;20036;-83
2022/11/05 10:42:30;;;;;;;10.57;2.20;;;10.90;99.90;;;;;;5048228;28;20439;-83
2022/11/05 10:45:35;;;;;;;8.23;2.00;;;10.90;99.90;;;;;;5039529;28;20025;-85
2022/11/05 10:48:42;;;;;;;9.23;2.08;;;10.90;99.90;;;;;;5050401;28;20040;-86
2022/11/05 10:51:08;;;;;;;8.20;1.98;;;11.00;99.90;;;;;;5040427;28;20414;-89
2022/11/05 10:53:37;;;;;;;12.98;2.58;;;11.00;99.90;;;;;;5043195;28;20033;-85
2022/11/05 10:56:03;;;;;;;9.43;2.22;;;11.10;99.90;;;;;;5033027;28;20027;-84
2022/11/05 10:58:33;;;;;;;5.13;1.70;;;11.20;99.90;;;;;;5045520;28;20021;-85
2022/11/05 11:01:11;;;;;;;9.70;2.50;;;11.20;99.90;;;;;;5039728;28;20074;-84
2022/11/05 11:03:48;;;;;;;7.65;2.22;;;11.20;99.90;;;;;;5031963;28;20025;-85
2022/11/05 11:06:19;;;;;;;9.68;2.53;;;11.20;99.90;;;;;;5042692;28;20037;-86
2022/11/05 11:08:47;;;;;;;7.40;2.40;;;11.20;99.90;;;;;;5046801;28;20048;-86
2022/11/05 11:11:32;;;;;;;13.30;2.10;;;11.10;99.90;;;;;;5044672;28;20045;-86
2022/11/05 11:14:04;;;;;;;8.07;2.45;;;11.10;99.90;;;;;;5033629;28;20034;-87
2022/11/05 11:16:41;;;;;;;5.88;1.75;;;11.10;99.90;;;;;;5039579;28;20025;-85
2022/11/05 11:19:55;;;;;;;12.55;2.38;;;11.10;99.90;;;;;;5047491;28;20322;-83
2022/11/05 11:22:21;;;;;;;15.15;3.03;;;11.10;99.90;;;;;;5046481;28;20079;-84
2022/11/05 11:24:50;;;;;;;6.50;1.92;;;11.20;99.90;;;;;;5045080;28;20028;-85
2022/11/05 11:27:27;;;;;;;7.50;1.92;;;11.10;99.90;;;;;;5042013;28;20468;-85
2022/11/05 11:30:05;;;;;;;6.82;1.95;;;11.20;99.90;;;;;;5038627;28;20095;-86
2022/11/05 11:32:35;;;;;;;7.43;2.50;;;11.20;99.90;;;;;;5036289;28;20029;-86
2022/11/05 11:35:01;;;;;;;14.40;2.05;;;11.20;99.90;;;;;;5038542;28;20064;-85
2022/11/05 11:37:34;;;;;;;6.47;2.10;;;11.20;99.90;;;;;;5042689;28;20722;-86
2022/11/05 11:40:16;;;;;;;14.88;2.38;;;11.20;99.90;;;;;;5024987;28;20146;-86
2022/11/05 11:42:49;;;;;;;11.40;2.50;;;11.20;99.90;;;;;;5038427;28;20418;-85
2022/11/05 11:45:26;;;;;;;16.88;2.15;;;11.20;99.90;;;;;;5043110;28;20037;-86
2022/11/05 11:47:53;;;;;;;6.20;2.10;;;11.30;99.90;;;;;;5049231;28;20477;-85
2022/11/05 11:50:40;;;;;;;12.55;2.38;;;11.20;99.90;;;;;;5048026;28;20040;-86
2022/11/05 11:53:20;;;;;;;14.23;3.17;;;11.30;99.90;;;;;;5047132;28;20029;-85
2022/11/05 11:56:01;;;;;;;14.50;3.28;;;11.20;99.90;;;;;;5057562;28;20036;-84
2022/11/05 11:58:44;;;;;;;9.45;2.38;;;11.10;99.90;;;;;;5030074;28;20045;-86
2022/11/05 12:01:32;;;;;;;22.17;2.88;;;11.10;99.90;;;;;;5026206;28;20077;-86
2022/11/05 12:04:19;;;;;;;8.30;2.30;;;11.10;99.90;;;;;;5026548;28;20025;-85
2022/11/05 12:06:50;;;;;;;11.50;2.65;;;11.10;99.90;;;;;;5032985;28;20466;-86
2022/11/05 12:09:48;;;;;;;8.60;3.10;;;11.20;99.90;;;;;;5003833;28;20037;-85
2022/11/05 12:12:16;;;;;;;9.48;2.90;;;11.20;99.90;;;;;;5013457;28;20084;-87
2022/11/05 12:15:01;;;;;;;6.53;2.90;;;11.20;99.90;;;;;;5036521;28;20072;-84
2022/11/05 12:17:42;;;;;;;9.05;4.53;;;11.10;99.90;;;;;;5025305;28;20033;-81
2022/11/05 12:20:24;;;;;;;16.02;4.25;;;11.00;99.90;;;;;;5021620;28;20195;-85
2022/11/05 12:23:02;;;;;;;10.73;4.50;;;11.00;99.90;;;;;;5030895;28;20034;-82
2022/11/05 12:25:52;;;;;;;10.63;2.70;;;10.90;99.90;;;;;;5023455;28;20386;-85
2022/11/05 12:28:55;;;;;;;11.90;2.55;;;10.90;99.90;;;;;;5023967;28;20055;-81
2022/11/05 12:31:50;;;;;;;15.35;4.50;;;10.90;99.90;;;;;;5024119;28;20095;-87
2022/11/05 12:34:39;;;;;;;7.70;2.17;;;10.90;99.90;;;;;;5020953;28;20473;-85
2022/11/05 12:37:19;;;;;;;8.18;2.42;;;11.00;99.90;;;;;;5027210;28;20418;-84
2022/11/05 12:40:12;;;;;;;12.57;2.42;;;11.00;99.90;;;;;;5020638;28;20030;-85
2022/11/05 12:42:58;;;;;;;15.38;3.13;;;10.90;99.90;;;;;;5019645;28;20156;-86
2022/11/05 12:45:53;;;;;;;8.15;2.92;;;10.90;99.90;;;;;;5027135;28;20090;-85
2022/11/05 12:48:37;;;;;;;10.15;2.20;;;10.90;99.90;;;;;;5019673;28;20037;-87
2022/11/05 12:51:23;;;;;;;6.22;2.10;;;10.90;99.90;;;;;;5021412;28;20037;-85
2022/11/05 12:53:52;;;;;;;;;;;10.90;99.90;;;;;;5014941;28;20037;-86
2022/11/05 12:56:34;;;;;;;17.25;4.72;;;11.00;99.90;;;;;;5031030;28;20056;-86
2022/11/05 12:59:13;;;;;;;10.20;2.90;;;11.10;99.90;;;;;;5038459;28;20465;-84
2022/11/05 13:02:07;;;;;;;11.93;2.80;;;11.10;99.90;;;;;;5050741;28;20029;-84
2022/11/05 13:04:45;;;;;;;8.75;2.20;;;11.10;99.90;;;;;;5049814;28;20029;-85
2022/11/05 13:07:15;;;;;;;8.55;2.80;;;11.20;99.90;;;;;;5030232;28;20377;-87
2022/11/05 13:09:49;;;;;;;7.15;2.80;;;11.20;99.90;;;;;;5051536;28;20123;-85
2022/11/05 13:12:19;;;;;;;18.10;3.13;;;11.30;99.90;;;;;;5045548;28;20040;-85
2022/11/05 13:14:56;;;;;;;5.97;2.35;;;11.30;99.90;;;;;;5052058;28;20031;-85
2022/11/05 13:17:27;;;;;;;16.52;2.70;;;11.30;99.90;;;;;;5040721;28;20107;-84
2022/11/05 13:20:13;;;;;;;13.80;2.65;;;11.20;99.90;;;;;;5043563;28;20323;-84
2022/11/05 13:22:46;;;;;;;7.38;2.17;;;11.10;99.90;;;;;;5022085;28;20029;-86
2022/11/05 13:25:18;;;;;;;11.93;2.92;;;11.10;99.90;;;;;;5036475;28;20022;-85
2022/11/05 13:28:15;;;;;;;7.90;2.45;;;11.10;99.90;;;;;;5036449;28;20047;-84
2022/11/05 13:30:50;;;;;;;7.25;2.50;;;11.00;99.90;;;;;;5018898;28;20037;-85
2022/11/05 13:33:22;;;;;;;13.35;2.40;;;11.00;99.90;;;;;;5049444;28;20086;-86
2022/11/05 13:38:58;;;;;;;11.80;2.50;;;10.90;99.90;;;;;;5037196;28;20076;-86
2022/11/05 13:41:31;;;;;;;8.57;2.28;;;10.90;99.90;;;;;;5044530;28;20213;-83
2022/11/05 13:43:57;;;;;;;8.00;2.28;;;11.00;99.90;;;;;;5040629;28;20032;-85
2022/11/05 13:46:42;;;;;;;12.52;2.80;;;11.00;99.90;;;;;;5051144;28;20035;-84
2022/11/05 13:49:23;;;;;;;10.13;2.60;;;11.00;99.90;;;;;;5040094;28;20642;-85
2022/11/05 13:51:55;;;;;;;8.52;2.10;;;11.00;99.90;;;;;;5049897;28;20047;-86
2022/11/05 13:54:40;;;;;;;14.02;3.08;;;11.00;99.90;;;;;;5047333;28;20492;-85